Flight Track Log - Related Links

Times and Time Zones

All times are in EST time to prevent confusion due to time zone crossing. See the N46265 flight status page for this flight to view local times or setup timezone preferences in your user account.

Time Position Orientation Groundspeed Altitude Reporting Facility
EST Latitude Longitude Course Direction KTS MPH feet Rate Location/Type
Fri 10:49:22 AM 28.9333 -81.7167 360° North 99 114 2,100  Level Orlando TRACON
Fri 10:49:28 AM 28.9333 -81.7167 273° West 100 115 2,200 395 Climbing Orlando TRACON
Fri 10:50:38 AM 28.9358 -81.7656 273° West 108 124 2,600 438 Climbing Jacksonville Center
Fri 10:51:45 AM 28.9425 -81.8036 281° West 106 122 3,200 281 Climbing Jacksonville Center
Fri 10:52:46 AM 28.9469 -81.8392 278° West 111 128 3,200  Level Jacksonville Center
Fri 10:53:47 AM 28.9536 -81.8769 281° West 115 132 3,200 -49 Level Jacksonville Center
Fri 10:54:48 AM 28.9600 -81.9100 282° West 112 129 3,100  Descending Jacksonville Center
Fri 10:55:49 AM 28.9644 -81.9456 278° West 107 123 3,200 49 Climbing Jacksonville Center
Fri 10:56:50 AM 28.9606 -81.9789 262° West 110 127 3,200 -49 Level Jacksonville Center
Fri 10:57:51 AM 28.9544 -82.0122 258° West 109 125 3,100  Descending Jacksonville Center
Fri 10:58:52 AM 28.9506 -82.0503 263° West 111 128 3,200 -49 Climbing Jacksonville Center
Fri 10:59:53 AM 28.9447 -82.0858 259° West 110 127 3,000 -344 Descending Jacksonville Center
Fri 11:00:54 AM 28.9406 -82.1239 263° West 117 135 2,500 -466 Descending Jacksonville Center
Fri 11:01:49 AM 28.9408 -82.1569 271° West 116 133 2,100 -205 Descending Jacksonville Center
Fri 11:02:51 AM 28.9472 -82.1925 282° West 116 133 2,100  Level Jacksonville Center
Fri 11:03:51 AM 28.9661 -82.2186 310° West 116 133 2,100  Level Jacksonville Center
Fri 11:04:52 AM 28.9975 -82.2256 349° North 101 116 2,100 -49 Level Jacksonville Center
Fri 11:05:54 AM 29.0247 -82.2253 North 98 113 2,000 -49 Descending Jacksonville Center
Fri 11:06:54 AM 29.0519 -82.2297 352° North 93 107 2,000  Level Jacksonville Center
Fri 11:07:55 AM 29.0747 -82.2272 North 85 98 2,000 -148 Level Jacksonville Center
Fri 11:08:56 AM 29.0978 -82.2247 North 86 99 1,700 -393 Descending Jacksonville Center
Fri 11:09:57 AM 29.1292 -82.2247 360° North 95 109 1,200 -590 Descending Jacksonville Center
Fri 11:10:58 AM 29.1542 -82.2267 356° North 93 107 500 -98 Descending Jacksonville Center
Fri 11:11:59 AM 29.1792 -82.2267 360° North 95 109 1,000 541 Climbing Jacksonville Center
Fri 11:13:00 AM 29.2042 -82.2336 346° North 101 116 1,600 541 Climbing Jacksonville Center
Fri 11:14:01 AM 29.2064 -82.2644 275° West 106 122 2,100 246 Climbing Jacksonville Center
Fri 11:15:02 AM 29.2047 -82.3050 267° West 111 128 2,100  Level Jacksonville Center
Fri 11:16:03 AM 29.2028 -82.3431 267° West 118 136 2,100 197 Level Jacksonville Center
Fri 11:17:04 AM 29.1967 -82.3739 257° West 111 128 2,500 244 Climbing Jacksonville Center
Fri 11:18:06 AM 29.1906 -82.4097 259° West 111 128 2,600  Climbing Jacksonville Center
Fri 11:19:06 AM 29.1803 -82.4453 252° West 112 129 2,500 -49 Descending Jacksonville Center
Fri 11:20:08 AM 29.1719 -82.4811 255° West 111 128 2,500  Level Jacksonville Center
Fri 11:21:09 AM 29.1658 -82.5144 258° West 107 123 2,500  Level Jacksonville Center
Fri 11:22:10 AM 29.1553 -82.5478 250° West 106 122 2,500 -49 Level Jacksonville Center
Fri 11:23:11 AM 29.1556 -82.5811 271° West 117 135 2,400 -49 Descending Jacksonville Center
Fri 11:24:12 AM 29.1786 -82.6047 318° Northwest 111 128 2,400  Level Jacksonville Center
Fri 11:25:13 AM 29.2036 -82.6261 323° Northwest 107 123 2,400 -49 Level Jacksonville Center
Fri 11:26:14 AM 29.2267 -82.6236 North 98 113 2,300 -98 Descending Jacksonville Center

Login

Don't have an account? Register now (free) for customized features, flight alerts, and more!